Time;durP1;ratioP1;P1;durP2;ratioP2;P2;SDS_P1;SDS_P2;PMS_P1;PMS_P2;Temp;Humidity;BMP_temperature;BMP_pressure;BME280_temperature;BME280_humidity;BME280_pressure;Samples;Min_cycle;Max_cycle;Signal;HPM_P1;HPM_P2
2022/04/15 00:01:39;;;;;;;14.63;7.43;;;8.20;99.90;;;;;;4975580;28;20038;-89
2022/04/15 00:04:05;;;;;;;13.90;5.50;;;8.20;99.90;;;;;;4991983;28;20511;-89
2022/04/15 00:06:32;;;;;;;15.27;6.18;;;8.20;99.90;;;;;;4992071;28;20074;-89
2022/04/15 00:08:57;;;;;;;8.77;4.75;;;8.20;99.90;;;;;;4992074;28;20092;-89
2022/04/15 00:11:22;;;;;;;19.60;7.47;;;8.10;99.90;;;;;;4991697;28;20050;-89
2022/04/15 00:13:48;;;;;;;12.57;5.82;;;8.10;99.90;;;;;;4991990;28;20499;-90
2022/04/15 00:16:14;;;;;;;13.18;6.07;;;8.10;99.90;;;;;;4975722;28;20038;-89
2022/04/15 00:18:41;;;;;;;12.25;6.68;;;8.10;99.90;;;;;;4991768;28;20137;-89
2022/04/15 00:21:07;;;;;;;13.23;7.28;;;8.10;99.90;;;;;;4991572;28;20483;-90
2022/04/15 00:23:34;;;;;;;12.55;6.95;;;8.10;99.90;;;;;;4991775;28;20038;-90
2022/04/15 00:26:00;;;;;;;13.13;7.55;;;8.10;99.90;;;;;;4975567;28;20043;-90
2022/04/15 00:28:26;;;;;;;14.20;7.03;;;8.00;99.90;;;;;;4991496;28;20100;-89
2022/04/15 00:30:53;;;;;;;11.90;3.35;;;8.00;99.90;;;;;;4991406;28;20038;-90
2022/04/15 00:33:19;;;;;;;12.63;5.38;;;7.90;99.90;;;;;;4991494;28;20053;-90
2022/04/15 00:35:44;;;;;;;10.23;4.47;;;7.80;99.90;;;;;;4991553;28;20038;-89
2022/04/15 00:38:10;;;;;;;8.57;4.65;;;7.80;99.90;;;;;;4991508;28;20041;-89
2022/04/15 00:40:36;;;;;;;10.15;4.57;;;7.80;99.90;;;;;;4991227;28;20128;-90
2022/04/15 00:43:01;;;;;;;14.95;5.65;;;7.80;99.90;;;;;;4991457;28;20042;-89
2022/04/15 00:45:27;;;;;;;11.68;5.05;;;7.70;99.90;;;;;;4991485;28;20038;-90
2022/04/15 00:47:54;;;;;;;10.40;5.07;;;7.70;99.90;;;;;;4991345;28;20042;-90
2022/04/15 00:50:25;;;;;;;11.50;6.28;;;7.60;99.90;;;;;;4991059;28;20093;-90
2022/04/15 00:52:52;;;;;;;10.32;6.25;;;7.60;99.90;;;;;;4990900;28;20042;-89
2022/04/15 00:55:21;;;;;;;12.98;6.35;;;7.60;99.90;;;;;;4975336;28;20057;-90
2022/04/15 00:58:00;;;;;;;15.45;6.20;;;7.60;99.90;;;;;;4991463;28;20578;-89
2022/04/15 01:00:28;;;;;;;11.13;6.35;;;7.60;99.90;;;;;;4991000;28;20653;-90
2022/04/15 01:02:56;;;;;;;11.48;5.28;;;7.60;99.90;;;;;;4975033;28;20045;-90
2022/04/15 01:05:22;;;;;;;12.82;5.55;;;7.60;99.90;;;;;;4975153;28;20049;-89
2022/04/15 01:07:49;;;;;;;13.05;5.88;;;7.50;99.90;;;;;;4974966;28;20034;-90
2022/04/15 01:10:16;;;;;;;20.00;6.25;;;7.50;99.90;;;;;;4990712;28;20045;-89
2022/04/15 01:12:46;;;;;;;9.35;5.28;;;7.40;99.90;;;;;;4974801;28;20518;-90
2022/04/15 01:15:14;;;;;;;9.40;5.45;;;7.30;99.90;;;;;;4991183;28;20541;-89
2022/04/15 01:17:40;;;;;;;10.32;5.47;;;7.30;99.90;;;;;;4975164;28;20043;-89
2022/04/15 01:20:09;;;;;;;13.93;6.20;;;7.30;99.90;;;;;;4974360;28;20522;-89
2022/04/15 01:22:42;;;;;;;12.30;5.57;;;7.30;99.90;;;;;;4974945;28;20042;-89
2022/04/15 01:25:10;;;;;;;13.02;6.78;;;7.20;99.90;;;;;;4974849;28;20038;-90
2022/04/15 01:27:37;;;;;;;13.48;7.07;;;7.20;99.90;;;;;;4975048;28;20057;-90
2022/04/15 01:30:05;;;;;;;16.40;7.40;;;7.20;99.90;;;;;;4990704;28;20049;-89
2022/04/15 01:32:31;;;;;;;15.35;7.25;;;7.30;99.90;;;;;;4974874;28;20410;-90
2022/04/15 01:34:57;;;;;;;12.18;6.43;;;7.30;99.90;;;;;;4991039;28;20049;-90
2022/04/15 01:37:23;;;;;;;10.15;5.25;;;7.30;99.90;;;;;;4974845;28;20073;-89
2022/04/15 01:39:50;;;;;;;12.23;6.15;;;7.20;99.90;;;;;;4990557;28;20422;-89
2022/04/15 01:42:17;;;;;;;14.43;6.05;;;7.20;99.90;;;;;;4974405;28;20039;-90
2022/04/15 01:44:43;;;;;;;12.02;6.57;;;7.10;99.90;;;;;;4974895;28;20130;-90
2022/04/15 01:47:12;;;;;;;11.73;6.38;;;7.10;99.90;;;;;;4974829;28;20070;-90
2022/04/15 01:49:38;;;;;;;15.38;6.38;;;7.10;99.90;;;;;;4974754;28;20053;-90
2022/04/15 01:52:05;;;;;;;11.80;5.78;;;7.10;99.90;;;;;;4990490;28;20418;-90
2022/04/15 01:54:31;;;;;;;12.95;6.55;;;7.10;99.90;;;;;;4990913;28;20046;-89
2022/04/15 01:56:57;;;;;;;16.55;6.07;;;7.10;99.90;;;;;;4990844;28;20387;-89
2022/04/15 01:59:23;;;;;;;12.52;7.20;;;7.10;99.90;;;;;;4990659;28;20409;-90
2022/04/15 02:01:52;;;;;;;14.63;7.00;;;7.10;99.90;;;;;;4990542;28;20038;-90
2022/04/15 02:04:18;;;;;;;15.25;8.05;;;7.10;99.90;;;;;;4992125;28;20035;-90
2022/04/15 02:06:43;;;;;;;17.15;8.48;;;7.20;99.90;;;;;;4978223;28;20046;-89
2022/04/15 02:09:09;;;;;;;15.00;8.00;;;7.20;99.90;;;;;;4994471;28;20088;-90
2022/04/15 02:11:35;;;;;;;12.95;7.70;;;7.20;99.90;;;;;;4994062;28;20129;-89
2022/04/15 02:14:00;;;;;;;18.00;8.15;;;7.30;99.90;;;;;;4978097;28;20050;-90
2022/04/15 02:16:26;;;;;;;13.25;7.35;;;7.30;99.90;;;;;;4977965;28;20100;-90
2022/04/15 02:18:51;;;;;;;12.52;7.28;;;7.40;99.90;;;;;;4994179;28;20481;-90
2022/04/15 02:21:17;;;;;;;14.20;6.72;;;7.40;99.90;;;;;;4993648;28;20038;-89
2022/04/15 02:23:42;;;;;;;14.10;7.05;;;7.40;99.90;;;;;;4994069;28;20038;-90
2022/04/15 02:26:08;;;;;;;15.55;7.07;;;7.50;99.90;;;;;;4977883;28;20057;-89
2022/04/15 02:28:33;;;;;;;13.25;6.15;;;7.50;99.90;;;;;;4977956;28;20054;-90
2022/04/15 02:30:59;;;;;;;15.48;7.65;;;7.60;99.90;;;;;;4993811;28;20050;-90
2022/04/15 02:33:24;;;;;;;12.73;6.10;;;7.60;99.90;;;;;;4993854;28;20042;-90
2022/04/15 02:35:50;;;;;;;11.60;6.10;;;7.70;99.90;;;;;;4994121;28;20042;-90
2022/04/15 02:38:16;;;;;;;14.57;6.78;;;7.70;99.90;;;;;;4993601;28;20041;-90
2022/04/15 02:40:43;;;;;;;12.80;7.00;;;7.80;99.90;;;;;;4993525;28;20439;-90
2022/04/15 02:43:10;;;;;;;12.35;6.13;;;7.80;99.90;;;;;;4977571;28;20042;-90
2022/04/15 02:45:36;;;;;;;12.93;6.75;;;7.80;99.90;;;;;;4994040;28;20450;-90
2022/04/15 02:48:02;;;;;;;14.35;6.43;;;7.90;99.90;;;;;;4993842;28;20496;-89
2022/04/15 02:50:28;;;;;;;13.52;6.60;;;7.90;99.90;;;;;;4993511;28;20101;-89
2022/04/15 02:52:54;;;;;;;11.63;5.97;;;7.90;99.90;;;;;;4993671;28;20030;-90
2022/04/15 02:55:19;;;;;;;11.70;6.40;;;7.90;99.90;;;;;;4993609;28;20065;-90
2022/04/15 02:57:45;;;;;;;12.43;6.28;;;7.90;99.90;;;;;;4993600;28;20088;-90
2022/04/15 03:00:13;;;;;;;10.93;5.13;;;8.00;99.90;;;;;;4993088;28;20043;-90
2022/04/15 03:02:38;;;;;;;12.52;6.28;;;8.00;99.90;;;;;;4977479;28;20372;-90
2022/04/15 03:05:04;;;;;;;14.38;6.88;;;8.00;99.90;;;;;;4993738;28;20510;-90
2022/04/15 03:07:30;;;;;;;10.95;6.32;;;8.10;99.90;;;;;;4993264;28;20043;-90
2022/04/15 03:09:55;;;;;;;11.90;6.88;;;8.10;99.90;;;;;;4992913;28;20116;-90
2022/04/15 03:12:21;;;;;;;14.88;6.90;;;8.10;99.90;;;;;;4993222;28;20521;-90
2022/04/15 03:14:49;;;;;;;13.18;6.32;;;8.20;99.90;;;;;;4993490;28;20049;-90
2022/04/15 03:17:15;;;;;;;15.50;6.63;;;8.20;99.90;;;;;;4992506;28;20039;-90
2022/04/15 03:19:40;;;;;;;12.93;7.13;;;8.20;99.90;;;;;;4992762;28;20117;-90
2022/04/15 03:22:06;;;;;;;15.93;6.90;;;8.20;99.90;;;;;;4976563;28;20050;-90
2022/04/15 03:24:31;;;;;;;11.93;6.28;;;8.20;99.90;;;;;;4976935;28;20477;-90
2022/04/15 03:26:57;;;;;;;14.50;6.50;;;8.30;99.90;;;;;;4993200;28;20061;-90
2022/04/15 03:29:23;;;;;;;13.48;7.20;;;8.30;99.90;;;;;;4993049;28;20438;-90
2022/04/15 03:31:49;;;;;;;15.20;7.47;;;8.30;99.90;;;;;;4992893;28;20465;-90
2022/04/15 03:34:14;;;;;;;13.18;6.40;;;8.30;99.90;;;;;;4993098;28;20130;-90
2022/04/15 03:36:40;;;;;;;11.23;6.95;;;8.30;99.90;;;;;;4976446;28;20103;-90
2022/04/15 03:39:06;;;;;;;15.35;6.78;;;8.30;99.90;;;;;;4976818;28;20058;-90
2022/04/15 03:41:32;;;;;;;13.32;6.95;;;8.30;99.90;;;;;;4992293;28;20121;-90
2022/04/15 03:43:57;;;;;;;11.30;6.25;;;8.30;99.90;;;;;;4992868;28;20034;-90
2022/04/15 03:46:23;;;;;;;11.75;6.35;;;8.40;99.90;;;;;;4976429;28;20129;-90
2022/04/15 03:48:48;;;;;;;13.88;7.53;;;8.40;99.90;;;;;;4977930;28;20046;-90
2022/04/15 03:51:14;;;;;;;11.60;6.95;;;8.40;99.90;;;;;;4999647;28;20041;-90
2022/04/15 03:53:39;;;;;;;13.40;6.80;;;8.40;99.90;;;;;;4981852;28;20046;-90
2022/04/15 03:56:07;;;;;;;11.15;6.05;;;8.40;99.90;;;;;;5004016;28;20030;-90
2022/04/15 03:58:35;;;;;;;11.57;6.10;;;8.50;99.90;;;;;;4987228;28;20073;-90
2022/04/15 04:01:01;;;;;;;14.85;7.40;;;8.50;99.90;;;;;;4992734;28;20053;-89
2022/04/15 04:03:27;;;;;;;14.90;7.43;;;8.50;99.90;;;;;;4992919;28;20057;-89
2022/04/15 04:05:52;;;;;;;13.23;6.60;;;8.50;99.90;;;;;;4992347;28;20129;-90
2022/04/15 04:08:18;;;;;;;13.35;6.20;;;8.50;99.90;;;;;;4992277;28;20411;-90
2022/04/15 04:10:44;;;;;;;13.93;7.22;;;8.50;99.90;;;;;;4991817;28;20137;-90
2022/04/15 04:13:09;;;;;;;12.95;7.07;;;8.50;99.90;;;;;;4992400;28;20050;-90
2022/04/15 04:15:35;;;;;;;11.25;5.95;;;8.60;99.90;;;;;;4992198;28;20081;-90
2022/04/15 04:18:01;;;;;;;13.77;6.80;;;8.60;99.90;;;;;;4991721;28;20054;-89
2022/04/15 04:20:27;;;;;;;11.02;5.90;;;8.60;99.90;;;;;;4989154;28;20042;-89
2022/04/15 04:22:53;;;;;;;11.38;6.30;;;8.60;99.90;;;;;;4991359;28;20077;-90
2022/04/15 04:25:19;;;;;;;14.23;6.35;;;8.60;99.90;;;;;;4991807;28;20093;-90
2022/04/15 04:27:45;;;;;;;13.23;5.88;;;8.60;99.90;;;;;;4991245;28;20041;-89
2022/04/15 04:30:14;;;;;;;15.35;7.75;;;8.60;99.90;;;;;;4991161;28;20081;-89
2022/04/15 04:32:42;;;;;;;14.85;6.80;;;8.60;99.90;;;;;;4991138;28;20050;-89
2022/04/15 04:35:08;;;;;;;11.82;6.30;;;8.60;99.90;;;;;;4991368;28;20039;-89
2022/04/15 04:37:34;;;;;;;11.18;6.13;;;8.60;99.90;;;;;;4991595;28;20482;-89
2022/04/15 04:40:00;;;;;;;11.98;5.97;;;8.60;99.90;;;;;;4990987;28;20038;-90
2022/04/15 04:42:26;;;;;;;12.57;6.22;;;8.70;99.90;;;;;;4991149;28;20112;-90
2022/04/15 04:44:52;;;;;;;14.95;7.45;;;8.70;99.90;;;;;;4991132;28;20034;-90
2022/04/15 04:47:20;;;;;;;13.40;6.30;;;8.70;99.90;;;;;;4991229;28;20034;-90
2022/04/15 04:49:46;;;;;;;12.60;5.93;;;8.70;99.90;;;;;;4990742;28;20054;-90
2022/04/15 04:52:11;;;;;;;12.88;6.05;;;8.70;99.90;;;;;;4990169;28;20045;-90
2022/04/15 04:54:37;;;;;;;11.52;6.43;;;8.70;99.90;;;;;;4991584;28;20049;-90
2022/04/15 04:57:03;;;;;;;11.73;6.50;;;8.70;99.90;;;;;;4991347;28;20382;-90
2022/04/15 04:59:31;;;;;;;12.05;6.15;;;8.70;99.90;;;;;;4990999;28;20042;-90
2022/04/15 05:01:57;;;;;;;11.95;5.63;;;8.70;99.90;;;;;;4990706;28;20089;-90
2022/04/15 05:04:22;;;;;;;11.57;7.18;;;8.80;99.90;;;;;;4991041;28;20039;-91
2022/04/15 05:06:48;;;;;;;11.32;6.35;;;8.80;99.90;;;;;;4991005;28;20435;-90
2022/04/15 05:09:13;;;;;;;10.43;6.00;;;8.80;99.90;;;;;;4991363;28;20042;-91
2022/04/15 05:11:39;;;;;;;10.82;6.35;;;8.80;99.90;;;;;;4991342;28;20046;-90
2022/04/15 05:14:04;;;;;;;10.05;6.18;;;8.80;99.90;;;;;;4991661;28;20563;-90
2022/04/15 05:16:30;;;;;;;12.70;5.95;;;8.80;99.90;;;;;;4991289;28;20518;-91
2022/04/15 05:18:56;;;;;;;10.05;5.50;;;8.80;99.90;;;;;;4991477;28;20381;-91
2022/04/15 05:21:22;;;;;;;11.77;6.28;;;8.90;99.90;;;;;;4991031;28;20047;-91
2022/04/15 05:23:47;;;;;;;13.15;6.65;;;8.90;99.90;;;;;;4991391;28;20049;-91
2022/04/15 05:26:14;;;;;;;10.60;6.53;;;8.90;99.90;;;;;;4990923;28;20034;-90
2022/04/15 05:28:41;;;;;;;13.55;6.65;;;8.90;99.90;;;;;;4990688;28;20042;-91
2022/04/15 05:31:10;;;;;;;10.68;5.60;;;8.90;99.90;;;;;;4990807;28;20050;-91
2022/04/15 05:33:36;;;;;;;13.00;7.70;;;8.90;99.90;;;;;;4991132;28;20388;-91
2022/04/15 05:36:02;;;;;;;12.55;6.93;;;8.90;99.90;;;;;;4991579;28;20158;-90
2022/04/15 05:38:28;;;;;;;13.30;7.43;;;9.00;99.90;;;;;;4987996;28;20078;-90
2022/04/15 05:40:54;;;;;;;12.63;6.53;;;9.00;99.90;;;;;;4984104;28;20038;-90
2022/04/15 05:43:20;;;;;;;11.98;6.43;;;9.00;99.90;;;;;;4975164;28;20046;-90
2022/04/15 05:45:45;;;;;;;11.35;6.55;;;9.00;99.90;;;;;;4958550;28;20086;-90
2022/04/15 05:48:11;;;;;;;10.93;6.07;;;9.00;99.90;;;;;;4974896;28;20038;-90
2022/04/15 05:50:37;;;;;;;10.27;5.22;;;9.00;99.90;;;;;;4958511;28;20031;-90
2022/04/15 05:53:02;;;;;;;9.98;5.78;;;9.00;99.90;;;;;;4975250;28;20038;-90
2022/04/15 05:55:28;;;;;;;10.40;5.93;;;9.00;99.90;;;;;;4958910;28;20066;-90
2022/04/15 05:57:53;;;;;;;10.32;5.95;;;9.00;99.90;;;;;;4959593;28;20062;-90
2022/04/15 06:00:19;;;;;;;12.02;6.47;;;9.00;99.90;;;;;;4974682;28;20637;-90
2022/04/15 06:02:45;;;;;;;10.75;5.65;;;9.00;99.90;;;;;;4959653;28;20420;-90
2022/04/15 06:05:11;;;;;;;10.10;5.05;;;9.00;99.90;;;;;;4975433;28;20097;-90
2022/04/15 06:07:36;;;;;;;10.48;5.88;;;9.00;99.90;;;;;;4958574;28;20507;-91
2022/04/15 06:10:03;;;;;;;12.43;6.03;;;9.00;99.90;;;;;;4958541;28;20520;-90
2022/04/15 06:12:57;;;;;;;8.77;5.28;;;9.10;99.90;;;;;;4958873;28;20047;-91
2022/04/15 06:15:33;;;;;;;10.23;5.65;;;9.10;99.90;;;;;;4958968;28;20035;-91
2022/04/15 06:18:03;;;;;;;10.18;5.30;;;9.10;99.90;;;;;;4958959;28;20072;-91
2022/04/15 06:20:29;;;;;;;8.80;4.82;;;9.10;99.90;;;;;;4974447;28;20097;-89
2022/04/15 06:22:56;;;;;;;10.20;5.57;;;9.10;99.90;;;;;;4958939;28;20051;-92
2022/04/15 06:25:22;;;;;;;9.60;5.00;;;9.20;99.90;;;;;;4974751;28;20069;-91
2022/04/15 06:27:50;;;;;;;10.88;5.18;;;9.20;99.90;;;;;;4974479;28;20034;-91
2022/04/15 06:30:16;;;;;;;9.93;5.43;;;9.20;99.90;;;;;;4974016;28;20096;-91
2022/04/15 06:32:44;;;;;;;10.85;5.03;;;9.30;99.90;;;;;;4974004;28;20125;-91
2022/04/15 06:35:10;;;;;;;9.27;5.13;;;9.30;99.90;;;;;;4958280;28;20053;-90
2022/04/15 06:37:36;;;;;;;10.32;5.38;;;9.30;99.90;;;;;;4974327;28;20042;-90
2022/04/15 06:40:01;;;;;;;8.80;5.20;;;9.40;99.90;;;;;;4957940;28;20047;-90
2022/04/15 06:42:28;;;;;;;9.40;4.68;;;9.40;99.90;;;;;;4973745;28;20038;-90
2022/04/15 06:44:54;;;;;;;9.32;4.55;;;9.40;99.90;;;;;;4974081;28;20049;-90
2022/04/15 06:47:20;;;;;;;9.65;5.22;;;9.40;99.90;;;;;;4973952;28;20528;-90
2022/04/15 06:49:46;;;;;;;10.02;4.47;;;9.40;99.90;;;;;;4973679;28;20043;-90
2022/04/15 06:52:13;;;;;;;9.57;4.78;;;9.40;99.90;;;;;;4973081;28;20049;-91
2022/04/15 06:54:39;;;;;;;9.38;4.47;;;9.40;99.90;;;;;;4974280;28;20038;-91
2022/04/15 06:57:05;;;;;;;8.43;4.88;;;9.40;99.90;;;;;;4958162;28;20496;-90
2022/04/15 06:59:31;;;;;;;9.30;4.85;;;9.40;99.90;;;;;;4973896;28;20471;-90
2022/04/15 07:01:57;;;;;;;9.38;4.68;;;9.40;99.90;;;;;;4963026;28;20042;-91
2022/04/15 07:04:23;;;;;;;9.18;4.20;;;9.40;99.90;;;;;;5009314;28;20034;-90
2022/04/15 07:06:49;;;;;;;8.07;4.05;;;9.40;99.90;;;;;;4992413;28;20109;-90
2022/04/15 07:09:14;;;;;;;9.05;4.60;;;9.40;99.90;;;;;;5026452;28;20050;-91
2022/04/15 07:11:40;;;;;;;9.07;4.97;;;9.40;99.90;;;;;;4976673;28;20046;-91
2022/04/15 07:14:06;;;;;;;9.38;5.05;;;9.40;99.90;;;;;;5009292;28;20046;-90
2022/04/15 07:16:32;;;;;;;9.30;4.72;;;9.40;99.90;;;;;;5009214;28;20042;-91
2022/04/15 07:18:57;;;;;;;9.63;4.72;;;9.40;99.90;;;;;;4992598;28;20069;-90
2022/04/15 07:21:24;;;;;;;8.68;4.68;;;9.40;99.90;;;;;;4992619;28;20042;-91
2022/04/15 07:23:50;;;;;;;9.15;4.72;;;9.40;99.90;;;;;;5009030;28;20080;-91
2022/04/15 07:26:16;;;;;;;9.10;5.22;;;9.40;99.90;;;;;;4976601;28;20042;-91
2022/04/15 07:28:41;;;;;;;9.80;5.45;;;9.40;99.90;;;;;;4992671;28;20411;-91
2022/04/15 07:31:07;;;;;;;9.93;5.38;;;9.40;99.90;;;;;;4991727;28;20049;-91
2022/04/15 07:33:32;;;;;;;9.43;5.32;;;9.40;99.90;;;;;;4993114;28;20491;-91
2022/04/15 07:35:58;;;;;;;10.73;5.57;;;9.40;99.90;;;;;;4976813;28;20543;-91
2022/04/15 07:38:23;;;;;;;11.50;5.53;;;9.40;99.90;;;;;;4992788;28;20108;-91
2022/04/15 07:40:49;;;;;;;10.15;5.25;;;9.40;99.90;;;;;;4976136;28;20061;-90
2022/04/15 07:43:15;;;;;;;9.05;5.38;;;9.40;99.90;;;;;;4992996;28;20411;-91
2022/04/15 07:45:41;;;;;;;10.30;5.93;;;9.50;99.90;;;;;;5009141;28;20129;-91
2022/04/15 07:48:07;;;;;;;11.48;6.15;;;9.40;99.90;;;;;;5025798;28;20038;-91
2022/04/15 07:50:32;;;;;;;11.70;6.72;;;9.50;99.90;;;;;;5025290;28;20516;-91
2022/04/15 07:52:59;;;;;;;11.25;5.75;;;9.50;99.90;;;;;;4992929;28;20050;-91
2022/04/15 07:55:26;;;;;;;11.32;5.57;;;9.50;99.90;;;;;;5025141;28;20507;-91
2022/04/15 07:57:51;;;;;;;11.65;6.82;;;9.60;99.90;;;;;;4976578;28;20043;-91
2022/04/15 08:00:18;;;;;;;10.75;6.57;;;9.60;99.90;;;;;;5024952;28;20035;-91
2022/04/15 08:02:43;;;;;;;13.55;7.43;;;9.60;99.90;;;;;;4992425;28;20412;-91
2022/04/15 08:05:09;;;;;;;12.35;7.28;;;9.60;99.90;;;;;;4992276;28;20045;-91
2022/04/15 08:07:35;;;;;;;12.85;6.70;;;9.70;99.90;;;;;;4992526;28;20038;-91
2022/04/15 08:10:02;;;;;;;14.25;8.15;;;9.70;99.90;;;;;;4989528;28;20526;-91
2022/04/15 08:12:27;;;;;;;16.25;8.85;;;9.70;99.90;;;;;;4975302;28;20039;-91
2022/04/15 08:14:53;;;;;;;16.05;8.15;;;9.80;99.90;;;;;;4975705;28;20053;-91
2022/04/15 08:17:18;;;;;;;15.85;9.18;;;9.80;99.90;;;;;;4992155;28;20129;-91
2022/04/15 08:19:44;;;;;;;13.82;9.00;;;9.80;99.90;;;;;;4975855;28;20065;-90
2022/04/15 08:22:10;;;;;;;15.18;9.05;;;9.80;99.90;;;;;;4991709;28;20073;-91
2022/04/15 08:24:39;;;;;;;15.43;8.48;;;9.80;99.90;;;;;;4991897;28;20042;-91
2022/04/15 08:27:05;;;;;;;15.35;8.32;;;9.90;99.90;;;;;;4991687;28;20121;-90
2022/04/15 08:29:31;;;;;;;17.65;10.20;;;9.90;99.90;;;;;;4975052;28;20053;-90
2022/04/15 08:31:57;;;;;;;15.40;8.77;;;9.90;99.90;;;;;;4974813;28;20069;-91
2022/04/15 08:34:23;;;;;;;15.38;9.00;;;10.00;99.90;;;;;;4991336;28;20037;-91
2022/04/15 08:36:48;;;;;;;14.45;9.52;;;10.00;99.90;;;;;;4991659;28;20507;-90
2022/04/15 08:39:15;;;;;;;19.27;9.32;;;10.00;99.90;;;;;;4991740;28;20514;-91
2022/04/15 08:41:44;;;;;;;15.23;9.13;;;10.00;99.90;;;;;;4990773;28;20054;-91
2022/04/15 08:44:10;;;;;;;19.38;10.55;;;10.00;99.90;;;;;;4991620;28;20046;-90
2022/04/15 08:46:36;;;;;;;13.25;8.18;;;10.10;99.90;;;;;;4991334;28;20037;-90
2022/04/15 08:49:02;;;;;;;15.77;9.40;;;10.10;99.90;;;;;;4991073;28;20042;-90
2022/04/15 08:51:30;;;;;;;17.00;8.88;;;10.10;99.90;;;;;;4990810;28;20042;-90
2022/04/15 08:53:56;;;;;;;16.45;9.95;;;10.20;99.90;;;;;;4991255;28;20125;-90
2022/04/15 08:56:23;;;;;;;16.25;9.48;;;10.20;99.90;;;;;;4991425;28;20407;-90
2022/04/15 08:58:49;;;;;;;15.70;8.73;;;10.20;99.90;;;;;;4991059;28;20042;-91
2022/04/15 09:01:14;;;;;;;15.80;9.02;;;10.30;99.90;;;;;;4973181;28;20093;-90
2022/04/15 09:03:40;;;;;;;14.60;9.07;;;10.30;99.90;;;;;;4990924;28;20041;-91
2022/04/15 09:06:14;;;;;;;17.15;10.32;;;10.30;99.90;;;;;;4991260;28;20461;-91
2022/04/15 09:09:15;;;;;;;15.30;9.00;;;10.30;99.90;;;;;;4991608;28;20057;-90
2022/04/15 09:11:44;;;;;;;16.80;9.73;;;10.30;99.90;;;;;;4996594;28;20061;-91
2022/04/15 09:14:14;;;;;;;16.45;9.43;;;10.40;99.90;;;;;;5007399;28;20042;-91
2022/04/15 09:16:42;;;;;;;19.50;10.15;;;10.40;99.90;;;;;;4993239;28;20120;-91
2022/04/15 09:19:09;;;;;;;18.92;10.63;;;10.50;99.90;;;;;;4991623;28;20360;-90
2022/04/15 09:21:35;;;;;;;19.27;10.35;;;10.50;99.90;;;;;;5001446;28;20057;-90
2022/04/15 09:24:01;;;;;;;15.23;10.07;;;10.50;99.90;;;;;;4992055;28;20455;-90
2022/04/15 09:26:27;;;;;;;24.92;10.35;;;10.60;99.90;;;;;;4991747;28;20038;-90
2022/04/15 09:28:53;;;;;;;16.35;9.50;;;10.60;99.90;;;;;;4975221;28;20049;-90
2022/04/15 09:31:21;;;;;;;15.45;8.93;;;10.70;99.90;;;;;;4990418;28;20471;-90
2022/04/15 09:33:56;;;;;;;16.83;9.05;;;10.70;99.90;;;;;;4990384;28;20053;-90
2022/04/15 09:36:32;;;;;;;16.65;9.40;;;10.70;99.90;;;;;;4990951;28;20097;-90
2022/04/15 09:39:16;;;;;;;16.33;8.32;;;10.70;99.90;;;;;;4990521;28;20038;-90
2022/04/15 09:41:50;;;;;;;16.10;9.07;;;10.80;99.90;;;;;;4990141;28;20050;-90
2022/04/15 09:44:16;;;;;;;16.17;8.85;;;10.90;99.90;;;;;;4991257;28;20046;-90
2022/04/15 09:46:45;;;;;;;12.38;7.10;;;10.90;99.90;;;;;;4990607;28;20084;-90
2022/04/15 09:49:12;;;;;;;14.73;7.43;;;11.00;99.90;;;;;;4990714;28;20053;-89
2022/04/15 09:51:52;;;;;;;13.85;7.15;;;10.90;99.90;;;;;;4990007;28;20068;-90
2022/04/15 09:54:25;;;;;;;12.32;6.85;;;11.00;99.90;;;;;;4990756;28;20046;-90
2022/04/15 09:56:52;;;;;;;12.25;6.88;;;11.10;99.90;;;;;;4990858;28;20042;-90
2022/04/15 09:59:23;;;;;;;13.02;6.63;;;11.10;99.90;;;;;;4990435;28;20113;-90
2022/04/15 10:01:53;;;;;;;13.43;6.50;;;11.20;99.90;;;;;;4990146;28;20085;-90
2022/04/15 10:04:20;;;;;;;11.45;6.28;;;11.20;99.90;;;;;;4990669;28;20038;-90
2022/04/15 10:06:46;;;;;;;14.73;6.93;;;11.30;99.90;;;;;;4990634;28;20076;-90
2022/04/15 10:09:13;;;;;;;12.27;6.40;;;11.30;99.90;;;;;;4990639;28;20049;-91
2022/04/15 10:11:44;;;;;;;14.07;6.68;;;11.30;99.90;;;;;;4989713;28;20081;-91
2022/04/15 10:14:11;;;;;;;12.73;6.38;;;11.40;99.90;;;;;;4990180;28;20076;-90
2022/04/15 10:16:38;;;;;;;13.73;6.45;;;11.50;99.90;;;;;;4990305;28;20034;-91
2022/04/15 10:19:05;;;;;;;11.18;5.68;;;11.50;99.90;;;;;;4990411;28;20045;-91
2022/04/15 10:21:33;;;;;;;11.90;6.10;;;11.50;99.90;;;;;;4990007;28;20042;-91
2022/04/15 10:24:01;;;;;;;14.50;7.05;;;11.50;99.90;;;;;;4990601;28;20070;-92
2022/04/15 10:26:31;;;;;;;11.38;6.20;;;11.60;99.90;;;;;;4993568;28;20053;-91
2022/04/15 10:29:00;;;;;;;11.38;5.75;;;11.60;99.90;;;;;;4993786;28;20057;-91
2022/04/15 10:31:40;;;;;;;10.23;5.32;;;11.70;99.90;;;;;;4993322;28;20574;-91
2022/04/15 10:34:14;;;;;;;10.38;5.15;;;11.80;99.90;;;;;;4993532;28;20109;-91
2022/04/15 10:37:04;;;;;;;12.20;5.85;;;11.90;99.90;;;;;;4994005;28;20053;-91
2022/04/15 10:39:29;;;;;;;13.57;6.68;;;12.00;99.90;;;;;;4993105;28;20500;-91
2022/04/15 10:41:56;;;;;;;13.35;6.43;;;12.10;99.90;;;;;;4993542;28;20046;-91
2022/04/15 10:44:24;;;;;;;10.50;5.25;;;12.10;99.90;;;;;;4993720;28;20038;-91
2022/04/15 10:46:50;;;;;;;12.52;6.25;;;12.20;99.90;;;;;;4993697;28;20394;-91
2022/04/15 10:49:26;;;;;;;12.27;6.25;;;12.20;99.90;;;;;;4993618;28;20539;-91
2022/04/15 10:52:21;;;;;;;13.32;6.53;;;12.20;99.90;;;;;;4992413;28;20130;-90
2022/04/15 10:54:49;;;;;;;12.95;6.97;;;12.30;99.90;;;;;;4992629;28;20121;-91
2022/04/15 10:57:19;;;;;;;13.43;7.93;;;12.30;99.90;;;;;;4993547;28;20046;-91
2022/04/15 11:02:40;;;;;;;11.95;6.30;;;12.30;99.90;;;;;;4993479;28;20053;-90
2022/04/15 11:05:08;;;;;;;13.07;6.95;;;12.30;99.90;;;;;;4993477;28;20096;-90
2022/04/15 11:07:56;;;;;;;11.32;5.50;;;12.40;99.90;;;;;;4993090;28;20040;-91
2022/04/15 11:10:40;;;;;;;11.40;5.53;;;12.40;99.90;;;;;;4992679;28;20047;-91
2022/04/15 11:13:07;;;;;;;11.13;5.50;;;12.50;99.90;;;;;;4993176;28;20042;-91
2022/04/15 11:16:04;;;;;;;10.73;5.90;;;12.50;99.90;;;;;;4992889;28;20042;-91
2022/04/15 11:18:51;;;;;;;11.27;5.95;;;12.60;99.90;;;;;;4993024;28;20042;-91
2022/04/15 11:21:19;;;;;;;13.68;5.82;;;12.60;99.90;;;;;;4992672;28;20756;-91
2022/04/15 11:23:47;;;;;;;13.23;5.80;;;12.70;99.90;;;;;;4996295;28;20395;-91
2022/04/15 11:26:14;;;;;;;10.73;5.88;;;12.70;99.90;;;;;;4996067;28;20129;-91
2022/04/15 11:28:41;;;;;;;14.50;5.90;;;12.80;99.90;;;;;;5012264;28;20046;-91
2022/04/15 11:31:24;;;;;;;13.65;6.05;;;12.80;99.90;;;;;;5011684;28;20042;-91
2022/04/15 11:33:50;;;;;;;14.05;7.55;;;12.90;99.90;;;;;;5011888;28;20400;-90
2022/04/15 11:36:20;;;;;;;15.18;7.95;;;12.90;99.90;;;;;;5011835;28;20044;-90
2022/04/15 11:38:46;;;;;;;13.48;6.45;;;13.00;99.90;;;;;;5011772;28;20042;-90
2022/04/15 11:41:19;;;;;;;11.18;6.00;;;13.00;99.90;;;;;;5011706;28;20049;-90
2022/04/15 11:43:59;;;;;;;9.85;5.75;;;13.00;99.90;;;;;;5012104;28;20045;-90
2022/04/15 11:46:27;;;;;;;10.32;5.53;;;13.10;99.90;;;;;;5012037;28;20045;-90
2022/04/15 11:48:55;;;;;;;12.98;7.10;;;13.10;99.90;;;;;;5012047;28;20574;-89
2022/04/15 11:51:23;;;;;;;10.93;5.70;;;13.20;99.90;;;;;;4994774;28;20042;-90
2022/04/15 11:53:50;;;;;;;11.10;5.90;;;13.20;99.90;;;;;;5011492;28;20046;-90
2022/04/15 11:56:20;;;;;;;11.02;5.97;;;13.30;99.90;;;;;;4995511;28;20044;-90
2022/04/15 11:58:46;;;;;;;11.38;5.47;;;13.30;99.90;;;;;;4995488;28;20038;-90
2022/04/15 12:01:24;;;;;;;13.10;5.50;;;13.30;99.90;;;;;;5011766;28;20068;-90
2022/04/15 12:03:51;;;;;;;10.25;5.70;;;13.40;99.90;;;;;;4995445;28;20030;-90
2022/04/15 12:06:17;;;;;;;11.25;6.28;;;13.40;99.90;;;;;;5011655;28;20456;-90
2022/04/15 12:08:42;;;;;;;11.02;6.28;;;13.40;99.90;;;;;;4995372;28;20084;-90
2022/04/15 12:11:09;;;;;;;11.75;5.68;;;13.40;99.90;;;;;;5010928;28;20083;-90
2022/04/15 12:13:34;;;;;;;11.70;6.20;;;13.50;99.90;;;;;;4994790;28;20117;-90
2022/04/15 12:16:01;;;;;;;12.10;6.07;;;13.50;99.90;;;;;;4994960;28;20161;-90
2022/04/15 12:18:27;;;;;;;11.35;6.10;;;13.50;99.90;;;;;;5011303;28;20096;-89
2022/04/15 12:20:52;;;;;;;10.98;6.40;;;13.50;99.90;;;;;;5011085;28;20046;-90
2022/04/15 12:23:18;;;;;;;12.52;6.03;;;13.50;99.90;;;;;;5011484;28;20415;-90
2022/04/15 12:26:08;;;;;;;11.40;6.00;;;13.50;99.90;;;;;;4994666;28;20073;-90
2022/04/15 12:31:31;;;;;;;12.35;6.05;;;13.50;99.90;;;;;;5010679;28;20104;-90
2022/04/15 12:33:57;;;;;;;10.35;6.15;;;13.50;99.90;;;;;;4994395;28;20076;-90
2022/04/15 12:36:23;;;;;;;12.02;6.25;;;13.40;99.90;;;;;;5011150;28;20049;-91
2022/04/15 12:39:00;;;;;;;10.95;6.32;;;13.40;99.90;;;;;;5010876;28;20038;-90
2022/04/15 12:41:49;;;;;;;11.50;6.30;;;13.40;99.90;;;;;;4994046;28;20046;-90
2022/04/15 12:44:27;;;;;;;10.63;6.15;;;13.40;99.90;;;;;;5010989;28;20038;-90
2022/04/15 12:47:00;;;;;;;11.38;6.18;;;13.40;99.90;;;;;;5011202;28;20117;-90
2022/04/15 12:49:34;;;;;;;12.63;6.85;;;13.50;99.90;;;;;;5011045;28;20042;-90
2022/04/15 12:52:11;;;;;;;12.13;6.85;;;13.40;99.90;;;;;;5010235;28;20037;-90
2022/04/15 12:55:01;;;;;;;12.95;6.80;;;13.40;99.90;;;;;;5010499;28;20091;-90